sensor_id;sensor_type;location;lat;lon;timestamp;temperature;humidity
19928;DHT22;10126;50.876;4.470;2023-07-20T00:01:45;17.60;99.90
19928;DHT22;10126;50.876;4.470;2023-07-20T00:03:46;17.60;99.90
19928;DHT22;10126;50.876;4.470;2023-07-20T00:05:55;17.60;99.90
19928;DHT22;10126;50.876;4.470;2023-07-20T00:07:55;17.50;99.90
19928;DHT22;10126;50.876;4.470;2023-07-20T00:09:57;17.50;99.90
19928;DHT22;10126;50.876;4.470;2023-07-20T00:11:58;17.50;99.90
19928;DHT22;10126;50.876;4.470;2023-07-20T00:14:00;17.40;99.90
19928;DHT22;10126;50.876;4.470;2023-07-20T00:16:04;17.40;99.90
19928;DHT22;10126;50.876;4.470;2023-07-20T00:18:05;17.60;99.90
19928;DHT22;10126;50.876;4.470;2023-07-20T00:20:06;17.70;99.90
19928;DHT22;10126;50.876;4.470;2023-07-20T00:22:07;17.80;99.90
19928;DHT22;10126;50.876;4.470;2023-07-20T00:24:08;17.70;99.90
19928;DHT22;10126;50.876;4.470;2023-07-20T00:26:09;17.70;99.90
19928;DHT22;10126;50.876;4.470;2023-07-20T00:28:09;17.60;99.90
19928;DHT22;10126;50.876;4.470;2023-07-20T00:30:10;17.60;99.90
19928;DHT22;10126;50.876;4.470;2023-07-20T00:32:11;17.40;99.90
19928;DHT22;10126;50.876;4.470;2023-07-20T00:34:12;17.50;99.90
19928;DHT22;10126;50.876;4.470;2023-07-20T00:36:12;17.40;99.90
19928;DHT22;10126;50.876;4.470;2023-07-20T00:38:13;17.50;99.90
19928;DHT22;10126;50.876;4.470;2023-07-20T00:40:14;17.30;99.90
19928;DHT22;10126;50.876;4.470;2023-07-20T00:42:14;17.20;99.90
19928;DHT22;10126;50.876;4.470;2023-07-20T00:44:15;17.10;99.90
19928;DHT22;10126;50.876;4.470;2023-07-20T00:46:16;17.10;99.90
19928;DHT22;10126;50.876;4.470;2023-07-20T00:48:19;17.30;99.90
19928;DHT22;10126;50.876;4.470;2023-07-20T00:50:20;17.30;99.90
19928;DHT22;10126;50.876;4.470;2023-07-20T00:52:22;17.40;99.90
19928;DHT22;10126;50.876;4.470;2023-07-20T00:54:23;17.50;99.90
19928;DHT22;10126;50.876;4.470;2023-07-20T00:56:24;17.50;99.90
19928;DHT22;10126;50.876;4.470;2023-07-20T00:58:25;17.40;99.90
19928;DHT22;10126;50.876;4.470;2023-07-20T01:00:26;17.40;99.90
19928;DHT22;10126;50.876;4.470;2023-07-20T01:02:26;17.40;99.90
19928;DHT22;10126;50.876;4.470;2023-07-20T01:04:27;17.40;99.90
19928;DHT22;10126;50.876;4.470;2023-07-20T01:13:22;17.20;99.90
19928;DHT22;10126;50.876;4.470;2023-07-20T01:15:23;17.30;99.90
19928;DHT22;10126;50.876;4.470;2023-07-20T01:17:24;17.20;99.90
19928;DHT22;10126;50.876;4.470;2023-07-20T01:19:25;17.20;99.90
19928;DHT22;10126;50.876;4.470;2023-07-20T01:21:32;17.20;99.90
19928;DHT22;10126;50.876;4.470;2023-07-20T01:23:50;17.10;99.90
19928;DHT22;10126;50.876;4.470;2023-07-20T01:33:18;17.20;99.90
19928;DHT22;10126;50.876;4.470;2023-07-20T01:35:20;17.30;99.90
19928;DHT22;10126;50.876;4.470;2023-07-20T01:37:24;17.30;99.90
19928;DHT22;10126;50.876;4.470;2023-07-20T01:39:28;17.30;99.90
19928;DHT22;10126;50.876;4.470;2023-07-20T01:41:29;17.20;99.90
19928;DHT22;10126;50.876;4.470;2023-07-20T01:43:29;17.10;99.90
19928;DHT22;10126;50.876;4.470;2023-07-20T01:45:30;17.00;99.90
19928;DHT22;10126;50.876;4.470;2023-07-20T01:47:31;17.00;99.90
19928;DHT22;10126;50.876;4.470;2023-07-20T01:49:31;17.00;99.90
19928;DHT22;10126;50.876;4.470;2023-07-20T01:51:32;16.90;99.90
19928;DHT22;10126;50.876;4.470;2023-07-20T01:53:35;16.80;99.90
19928;DHT22;10126;50.876;4.470;2023-07-20T01:55:36;16.90;99.90
19928;DHT22;10126;50.876;4.470;2023-07-20T01:57:38;16.80;99.90
19928;DHT22;10126;50.876;4.470;2023-07-20T01:59:38;16.90;99.90
19928;DHT22;10126;50.876;4.470;2023-07-20T02:01:39;16.90;99.90
19928;DHT22;10126;50.876;4.470;2023-07-20T02:03:39;17.00;99.90
19928;DHT22;10126;50.876;4.470;2023-07-20T02:05:42;17.00;99.90
19928;DHT22;10126;50.876;4.470;2023-07-20T02:07:43;16.90;99.90
19928;DHT22;10126;50.876;4.470;2023-07-20T02:09:47;16.90;99.90
19928;DHT22;10126;50.876;4.470;2023-07-20T02:11:47;16.90;99.90
19928;DHT22;10126;50.876;4.470;2023-07-20T02:13:48;17.00;99.90
19928;DHT22;10126;50.876;4.470;2023-07-20T02:15:48;17.10;99.90
19928;DHT22;10126;50.876;4.470;2023-07-20T02:17:49;17.10;99.90
19928;DHT22;10126;50.876;4.470;2023-07-20T02:19:54;17.00;99.90
19928;DHT22;10126;50.876;4.470;2023-07-20T02:21:55;17.00;99.90
19928;DHT22;10126;50.876;4.470;2023-07-20T02:23:55;16.90;99.90
19928;DHT22;10126;50.876;4.470;2023-07-20T02:25:56;16.80;99.90
19928;DHT22;10126;50.876;4.470;2023-07-20T02:27:57;16.90;99.90
19928;DHT22;10126;50.876;4.470;2023-07-20T02:29:58;16.80;99.90
19928;DHT22;10126;50.876;4.470;2023-07-20T02:31:59;16.70;99.90
19928;DHT22;10126;50.876;4.470;2023-07-20T02:33:59;16.80;99.90
19928;DHT22;10126;50.876;4.470;2023-07-20T02:36:00;16.80;99.90
19928;DHT22;10126;50.876;4.470;2023-07-20T02:38:01;16.80;99.90
19928;DHT22;10126;50.876;4.470;2023-07-20T02:40:01;16.80;99.90
19928;DHT22;10126;50.876;4.470;2023-07-20T02:42:04;16.80;99.90
19928;DHT22;10126;50.876;4.470;2023-07-20T02:44:05;16.80;99.90
19928;DHT22;10126;50.876;4.470;2023-07-20T02:46:05;16.70;99.90
19928;DHT22;10126;50.876;4.470;2023-07-20T02:48:06;16.70;99.90
19928;DHT22;10126;50.876;4.470;2023-07-20T02:50:08;16.70;99.90
19928;DHT22;10126;50.876;4.470;2023-07-20T02:52:09;16.70;99.90
19928;DHT22;10126;50.876;4.470;2023-07-20T02:54:09;16.60;99.90
19928;DHT22;10126;50.876;4.470;2023-07-20T02:56:10;16.60;99.90
19928;DHT22;10126;50.876;4.470;2023-07-20T02:58:11;16.60;99.90
19928;DHT22;10126;50.876;4.470;2023-07-20T03:00:12;16.60;99.90
19928;DHT22;10126;50.876;4.470;2023-07-20T03:02:15;16.60;99.90
19928;DHT22;10126;50.876;4.470;2023-07-20T03:04:16;16.70;99.90
19928;DHT22;10126;50.876;4.470;2023-07-20T03:06:17;16.60;99.90
19928;DHT22;10126;50.876;4.470;2023-07-20T03:08:17;16.60;99.90
19928;DHT22;10126;50.876;4.470;2023-07-20T03:10:18;16.60;99.90
19928;DHT22;10126;50.876;4.470;2023-07-20T03:12:19;16.60;99.90
19928;DHT22;10126;50.876;4.470;2023-07-20T03:14:19;16.50;99.90
19928;DHT22;10126;50.876;4.470;2023-07-20T03:16:23;16.50;99.90
19928;DHT22;10126;50.876;4.470;2023-07-20T03:18:25;16.50;99.90
19928;DHT22;10126;50.876;4.470;2023-07-20T03:20:26;16.50;99.90
19928;DHT22;10126;50.876;4.470;2023-07-20T03:22:27;16.50;99.90
19928;DHT22;10126;50.876;4.470;2023-07-20T03:24:27;16.50;99.90
19928;DHT22;10126;50.876;4.470;2023-07-20T03:26:31;16.50;99.90
19928;DHT22;10126;50.876;4.470;2023-07-20T03:28:31;16.40;99.90
19928;DHT22;10126;50.876;4.470;2023-07-20T03:30:32;16.40;99.90
19928;DHT22;10126;50.876;4.470;2023-07-20T03:32:33;16.40;99.90
19928;DHT22;10126;50.876;4.470;2023-07-20T03:34:33;16.30;99.90
19928;DHT22;10126;50.876;4.470;2023-07-20T03:36:34;16.40;99.90
19928;DHT22;10126;50.876;4.470;2023-07-20T03:38:34;16.40;99.90
19928;DHT22;10126;50.876;4.470;2023-07-20T03:40:38;16.40;99.90
19928;DHT22;10126;50.876;4.470;2023-07-20T03:42:38;16.50;99.90
19928;DHT22;10126;50.876;4.470;2023-07-20T03:44:39;16.50;99.90
19928;DHT22;10126;50.876;4.470;2023-07-20T03:46:43;16.70;99.90
19928;DHT22;10126;50.876;4.470;2023-07-20T03:48:44;16.70;99.90
19928;DHT22;10126;50.876;4.470;2023-07-20T03:50:45;16.80;99.90
19928;DHT22;10126;50.876;4.470;2023-07-20T03:52:46;16.90;99.90
19928;DHT22;10126;50.876;4.470;2023-07-20T03:54:47;16.80;99.90
19928;DHT22;10126;50.876;4.470;2023-07-20T03:56:47;16.80;99.90
19928;DHT22;10126;50.876;4.470;2023-07-20T03:58:48;16.90;99.90
19928;DHT22;10126;50.876;4.470;2023-07-20T04:00:50;17.10;99.90
19928;DHT22;10126;50.876;4.470;2023-07-20T04:02:51;17.10;99.90
19928;DHT22;10126;50.876;4.470;2023-07-20T04:04:51;17.20;99.90
19928;DHT22;10126;50.876;4.470;2023-07-20T04:06:52;17.20;99.90
19928;DHT22;10126;50.876;4.470;2023-07-20T04:08:52;17.30;99.90
19928;DHT22;10126;50.876;4.470;2023-07-20T04:10:53;17.30;99.90
19928;DHT22;10126;50.876;4.470;2023-07-20T04:12:54;17.30;99.90
19928;DHT22;10126;50.876;4.470;2023-07-20T04:14:54;17.40;99.90
19928;DHT22;10126;50.876;4.470;2023-07-20T04:16:55;17.50;99.90
19928;DHT22;10126;50.876;4.470;2023-07-20T04:18:56;17.40;99.90
19928;DHT22;10126;50.876;4.470;2023-07-20T04:20:56;17.50;99.90
19928;DHT22;10126;50.876;4.470;2023-07-20T04:22:57;17.50;99.90
19928;DHT22;10126;50.876;4.470;2023-07-20T04:24:58;17.50;99.90
19928;DHT22;10126;50.876;4.470;2023-07-20T04:26:58;17.50;99.90
19928;DHT22;10126;50.876;4.470;2023-07-20T04:28:59;17.50;99.90
19928;DHT22;10126;50.876;4.470;2023-07-20T04:31:13;17.50;99.90
19928;DHT22;10126;50.876;4.470;2023-07-20T04:33:14;17.40;99.90
19928;DHT22;10126;50.876;4.470;2023-07-20T04:35:50;17.40;99.90
19928;DHT22;10126;50.876;4.470;2023-07-20T04:37:51;17.40;99.90
19928;DHT22;10126;50.876;4.470;2023-07-20T04:39:52;17.40;99.90
19928;DHT22;10126;50.876;4.470;2023-07-20T04:41:58;17.40;99.90
19928;DHT22;10126;50.876;4.470;2023-07-20T04:43:59;17.30;99.90
19928;DHT22;10126;50.876;4.470;2023-07-20T04:45:59;17.40;99.90
19928;DHT22;10126;50.876;4.470;2023-07-20T04:48:00;17.50;99.90
19928;DHT22;10126;50.876;4.470;2023-07-20T04:50:03;17.50;99.90
19928;DHT22;10126;50.876;4.470;2023-07-20T04:52:04;17.50;99.90
19928;DHT22;10126;50.876;4.470;2023-07-20T04:54:05;17.40;99.90
19928;DHT22;10126;50.876;4.470;2023-07-20T04:56:05;17.60;99.90
19928;DHT22;10126;50.876;4.470;2023-07-20T04:58:06;17.70;99.90
19928;DHT22;10126;50.876;4.470;2023-07-20T05:00:07;17.70;99.90
19928;DHT22;10126;50.876;4.470;2023-07-20T05:02:10;17.70;99.90
19928;DHT22;10126;50.876;4.470;2023-07-20T05:04:11;17.80;99.90
19928;DHT22;10126;50.876;4.470;2023-07-20T05:06:12;18.10;99.90
19928;DHT22;10126;50.876;4.470;2023-07-20T05:08:13;18.20;99.90
19928;DHT22;10126;50.876;4.470;2023-07-20T05:10:13;18.20;99.90
19928;DHT22;10126;50.876;4.470;2023-07-20T05:12:14;18.30;99.90
19928;DHT22;10126;50.876;4.470;2023-07-20T05:14:14;18.40;99.90
19928;DHT22;10126;50.876;4.470;2023-07-20T05:16:15;18.30;99.90
19928;DHT22;10126;50.876;4.470;2023-07-20T05:18:19;18.40;99.90
19928;DHT22;10126;50.876;4.470;2023-07-20T05:20:20;18.50;99.90
19928;DHT22;10126;50.876;4.470;2023-07-20T05:22:21;18.80;99.90
19928;DHT22;10126;50.876;4.470;2023-07-20T05:24:22;18.80;99.90
19928;DHT22;10126;50.876;4.470;2023-07-20T05:26:22;19.00;99.90
19928;DHT22;10126;50.876;4.470;2023-07-20T05:28:23;19.60;99.90
19928;DHT22;10126;50.876;4.470;2023-07-20T05:30:24;20.40;99.90
19928;DHT22;10126;50.876;4.470;2023-07-20T05:32:25;20.50;99.90
19928;DHT22;10126;50.876;4.470;2023-07-20T05:34:26;20.60;99.90
19928;DHT22;10126;50.876;4.470;2023-07-20T05:36:26;21.10;99.90
19928;DHT22;10126;50.876;4.470;2023-07-20T05:38:27;21.70;99.90
19928;DHT22;10126;50.876;4.470;2023-07-20T05:40:28;21.80;99.90
19928;DHT22;10126;50.876;4.470;2023-07-20T05:42:28;21.60;99.90
19928;DHT22;10126;50.876;4.470;2023-07-20T05:44:29;21.30;99.90
19928;DHT22;10126;50.876;4.470;2023-07-20T05:46:29;20.80;99.90
19928;DHT22;10126;50.876;4.470;2023-07-20T05:48:30;20.60;99.90
19928;DHT22;10126;50.876;4.470;2023-07-20T05:50:31;20.30;99.90
19928;DHT22;10126;50.876;4.470;2023-07-20T05:52:32;20.00;99.90
19928;DHT22;10126;50.876;4.470;2023-07-20T05:54:32;19.90;99.90
19928;DHT22;10126;50.876;4.470;2023-07-20T05:56:33;19.80;99.90
19928;DHT22;10126;50.876;4.470;2023-07-20T05:58:34;19.90;99.90
19928;DHT22;10126;50.876;4.470;2023-07-20T06:00:34;19.80;99.90
19928;DHT22;10126;50.876;4.470;2023-07-20T06:02:35;19.80;99.90
19928;DHT22;10126;50.876;4.470;2023-07-20T06:04:35;19.70;99.90
19928;DHT22;10126;50.876;4.470;2023-07-20T06:06:36;19.40;99.90
19928;DHT22;10126;50.876;4.470;2023-07-20T06:08:39;19.60;99.90
19928;DHT22;10126;50.876;4.470;2023-07-20T06:10:40;19.70;99.90
19928;DHT22;10126;50.876;4.470;2023-07-20T06:12:40;19.70;99.90
19928;DHT22;10126;50.876;4.470;2023-07-20T06:14:41;19.50;99.90
19928;DHT22;10126;50.876;4.470;2023-07-20T06:16:42;19.50;99.90
19928;DHT22;10126;50.876;4.470;2023-07-20T06:18:42;19.50;99.90
19928;DHT22;10126;50.876;4.470;2023-07-20T06:20:51;19.40;99.90
19928;DHT22;10126;50.876;4.470;2023-07-20T06:22:52;19.40;99.90
19928;DHT22;10126;50.876;4.470;2023-07-20T06:24:53;19.50;99.90
19928;DHT22;10126;50.876;4.470;2023-07-20T06:26:53;19.80;99.90
19928;DHT22;10126;50.876;4.470;2023-07-20T06:28:54;20.00;99.90
19928;DHT22;10126;50.876;4.470;2023-07-20T06:31:04;20.00;99.90
19928;DHT22;10126;50.876;4.470;2023-07-20T06:33:05;20.40;99.90
19928;DHT22;10126;50.876;4.470;2023-07-20T06:35:05;20.50;99.90
19928;DHT22;10126;50.876;4.470;2023-07-20T06:37:07;20.60;99.90
19928;DHT22;10126;50.876;4.470;2023-07-20T06:39:07;20.80;99.90
19928;DHT22;10126;50.876;4.470;2023-07-20T06:41:08;20.70;99.90
19928;DHT22;10126;50.876;4.470;2023-07-20T06:43:09;20.60;99.90
19928;DHT22;10126;50.876;4.470;2023-07-20T06:45:10;20.20;99.90
19928;DHT22;10126;50.876;4.470;2023-07-20T06:47:10;20.40;99.90
19928;DHT22;10126;50.876;4.470;2023-07-20T06:49:26;20.50;99.90
19928;DHT22;10126;50.876;4.470;2023-07-20T06:51:27;20.80;99.90
19928;DHT22;10126;50.876;4.470;2023-07-20T06:53:29;20.90;99.90
19928;DHT22;10126;50.876;4.470;2023-07-20T06:55:29;20.90;99.90
19928;DHT22;10126;50.876;4.470;2023-07-20T06:57:30;21.10;99.90
19928;DHT22;10126;50.876;4.470;2023-07-20T06:59:34;21.10;99.90
19928;DHT22;10126;50.876;4.470;2023-07-20T07:01:34;21.20;99.90
19928;DHT22;10126;50.876;4.470;2023-07-20T07:03:35;21.20;99.90
19928;DHT22;10126;50.876;4.470;2023-07-20T07:05:37;21.20;99.90
19928;DHT22;10126;50.876;4.470;2023-07-20T07:07:37;21.60;99.90
19928;DHT22;10126;50.876;4.470;2023-07-20T07:09:40;21.60;99.90
19928;DHT22;10126;50.876;4.470;2023-07-20T07:11:40;21.60;99.90
19928;DHT22;10126;50.876;4.470;2023-07-20T07:13:41;21.40;99.90
19928;DHT22;10126;50.876;4.470;2023-07-20T07:15:42;21.20;99.90
19928;DHT22;10126;50.876;4.470;2023-07-20T07:17:43;21.00;99.90
19928;DHT22;10126;50.876;4.470;2023-07-20T07:19:44;21.10;99.90
19928;DHT22;10126;50.876;4.470;2023-07-20T07:21:44;21.50;99.90
19928;DHT22;10126;50.876;4.470;2023-07-20T07:23:45;22.20;99.90
19928;DHT22;10126;50.876;4.470;2023-07-20T07:25:46;23.30;99.90
19928;DHT22;10126;50.876;4.470;2023-07-20T07:27:47;24.90;99.90
19928;DHT22;10126;50.876;4.470;2023-07-20T07:29:47;25.50;99.90
19928;DHT22;10126;50.876;4.470;2023-07-20T07:31:49;25.40;99.90
19928;DHT22;10126;50.876;4.470;2023-07-20T07:33:50;25.20;99.90
19928;DHT22;10126;50.876;4.470;2023-07-20T07:35:54;24.70;99.90
19928;DHT22;10126;50.876;4.470;2023-07-20T07:37:54;24.70;99.90
19928;DHT22;10126;50.876;4.470;2023-07-20T07:39:55;25.40;99.90
19928;DHT22;10126;50.876;4.470;2023-07-20T07:41:56;26.50;99.90
19928;DHT22;10126;50.876;4.470;2023-07-20T07:43:57;26.40;99.90
19928;DHT22;10126;50.876;4.470;2023-07-20T07:45:57;26.50;99.90
19928;DHT22;10126;50.876;4.470;2023-07-20T07:47:58;26.50;99.90
19928;DHT22;10126;50.876;4.470;2023-07-20T07:49:59;26.40;99.90
19928;DHT22;10126;50.876;4.470;2023-07-20T07:52:00;26.50;99.90
19928;DHT22;10126;50.876;4.470;2023-07-20T07:54:02;26.90;99.90
19928;DHT22;10126;50.876;4.470;2023-07-20T07:56:04;26.80;99.90
19928;DHT22;10126;50.876;4.470;2023-07-20T07:58:07;26.30;99.90
19928;DHT22;10126;50.876;4.470;2023-07-20T08:00:11;25.70;99.90
19928;DHT22;10126;50.876;4.470;2023-07-20T08:02:14;25.60;99.90
19928;DHT22;10126;50.876;4.470;2023-07-20T08:04:15;25.50;99.90
19928;DHT22;10126;50.876;4.470;2023-07-20T08:06:16;27.20;99.90
19928;DHT22;10126;50.876;4.470;2023-07-20T08:08:17;29.40;99.90
19928;DHT22;10126;50.876;4.470;2023-07-20T08:10:18;30.80;99.90
19928;DHT22;10126;50.876;4.470;2023-07-20T08:12:18;31.40;99.90
19928;DHT22;10126;50.876;4.470;2023-07-20T08:14:20;31.80;99.90
19928;DHT22;10126;50.876;4.470;2023-07-20T08:16:21;31.60;99.90
19928;DHT22;10126;50.876;4.470;2023-07-20T08:18:21;30.30;99.90
19928;DHT22;10126;50.876;4.470;2023-07-20T08:20:22;29.60;99.90
19928;DHT22;10126;50.876;4.470;2023-07-20T08:22:26;28.80;99.90
19928;DHT22;10126;50.876;4.470;2023-07-20T08:24:30;28.50;99.90
19928;DHT22;10126;50.876;4.470;2023-07-20T08:26:30;27.70;99.90
19928;DHT22;10126;50.876;4.470;2023-07-20T08:28:31;27.90;99.90
19928;DHT22;10126;50.876;4.470;2023-07-20T08:30:46;27.90;99.90
19928;DHT22;10126;50.876;4.470;2023-07-20T08:32:47;26.50;99.90
19928;DHT22;10126;50.876;4.470;2023-07-20T08:34:47;26.30;99.90
19928;DHT22;10126;50.876;4.470;2023-07-20T08:36:48;26.90;99.90
19928;DHT22;10126;50.876;4.470;2023-07-20T08:38:49;26.50;99.90
19928;DHT22;10126;50.876;4.470;2023-07-20T08:40:49;27.80;99.90
19928;DHT22;10126;50.876;4.470;2023-07-20T08:42:54;29.40;99.90
19928;DHT22;10126;50.876;4.470;2023-07-20T08:44:55;30.90;99.90
19928;DHT22;10126;50.876;4.470;2023-07-20T08:46:56;32.10;99.90
19928;DHT22;10126;50.876;4.470;2023-07-20T08:48:57;31.80;99.90
19928;DHT22;10126;50.876;4.470;2023-07-20T08:50:58;33.20;99.90
19928;DHT22;10126;50.876;4.470;2023-07-20T08:53:01;33.70;98.60
19928;DHT22;10126;50.876;4.470;2023-07-20T08:55:02;33.50;96.20
19928;DHT22;10126;50.876;4.470;2023-07-20T08:57:06;34.00;94.70
19928;DHT22;10126;50.876;4.470;2023-07-20T08:59:09;34.10;93.50
19928;DHT22;10126;50.876;4.470;2023-07-20T09:01:10;33.50;93.90
19928;DHT22;10126;50.876;4.470;2023-07-20T09:03:12;32.00;94.30
19928;DHT22;10126;50.876;4.470;2023-07-20T09:05:13;30.30;96.50
19928;DHT22;10126;50.876;4.470;2023-07-20T09:07:16;29.10;98.90
19928;DHT22;10126;50.876;4.470;2023-07-20T09:09:18;27.00;99.90
19928;DHT22;10126;50.876;4.470;2023-07-20T09:11:21;26.40;99.90
19928;DHT22;10126;50.876;4.470;2023-07-20T09:13:27;26.70;99.90
19928;DHT22;10126;50.876;4.470;2023-07-20T09:15:29;28.00;99.90
19928;DHT22;10126;50.876;4.470;2023-07-20T09:17:30;30.10;99.90
19928;DHT22;10126;50.876;4.470;2023-07-20T09:19:31;31.40;99.40
19928;DHT22;10126;50.876;4.470;2023-07-20T09:21:31;32.40;96.50
19928;DHT22;10126;50.876;4.470;2023-07-20T09:23:36;33.40;94.60
19928;DHT22;10126;50.876;4.470;2023-07-20T09:25:37;34.10;92.10
19928;DHT22;10126;50.876;4.470;2023-07-20T09:27:40;33.20;91.60
19928;DHT22;10126;50.876;4.470;2023-07-20T09:29:52;31.70;93.30
19928;DHT22;10126;50.876;4.470;2023-07-20T09:32:01;30.80;94.30
19928;DHT22;10126;50.876;4.470;2023-07-20T09:34:04;30.50;95.20
19928;DHT22;10126;50.876;4.470;2023-07-20T09:36:05;30.10;95.90
19928;DHT22;10126;50.876;4.470;2023-07-20T09:38:06;30.00;97.70
19928;DHT22;10126;50.876;4.470;2023-07-20T09:40:07;29.80;98.10
19928;DHT22;10126;50.876;4.470;2023-07-20T09:42:13;29.40;97.20
19928;DHT22;10126;50.876;4.470;2023-07-20T09:44:15;29.80;98.00
19928;DHT22;10126;50.876;4.470;2023-07-20T09:46:16;29.50;96.60
19928;DHT22;10126;50.876;4.470;2023-07-20T09:48:17;30.00;97.00
19928;DHT22;10126;50.876;4.470;2023-07-20T09:50:23;29.90;95.10
19928;DHT22;10126;50.876;4.470;2023-07-20T09:52:26;30.20;95.30
19928;DHT22;10126;50.876;4.470;2023-07-20T09:54:28;30.90;94.80
19928;DHT22;10126;50.876;4.470;2023-07-20T09:56:30;30.50;95.30
19928;DHT22;10126;50.876;4.470;2023-07-20T09:58:32;30.50;96.10
19928;DHT22;10126;50.876;4.470;2023-07-20T10:00:36;30.60;96.20
19928;DHT22;10126;50.876;4.470;2023-07-20T10:02:41;30.00;95.80
19928;DHT22;10126;50.876;4.470;2023-07-20T10:04:44;29.60;96.10
19928;DHT22;10126;50.876;4.470;2023-07-20T10:06:47;29.50;95.90
19928;DHT22;10126;50.876;4.470;2023-07-20T10:08:52;29.80;95.40
19928;DHT22;10126;50.876;4.470;2023-07-20T10:10:54;29.40;95.70
19928;DHT22;10126;50.876;4.470;2023-07-20T10:12:57;29.40;96.10
19928;DHT22;10126;50.876;4.470;2023-07-20T10:15:11;28.50;98.90
19928;DHT22;10126;50.876;4.470;2023-07-20T10:17:15;28.70;98.20
19928;DHT22;10126;50.876;4.470;2023-07-20T10:19:32;29.60;96.80
19928;DHT22;10126;50.876;4.470;2023-07-20T10:21:40;30.70;96.10
19928;DHT22;10126;50.876;4.470;2023-07-20T10:23:43;31.90;95.20
19928;DHT22;10126;50.876;4.470;2023-07-20T10:25:44;33.20;92.70
19928;DHT22;10126;50.876;4.470;2023-07-20T10:27:47;33.60;91.10
19928;DHT22;10126;50.876;4.470;2023-07-20T10:29:48;34.70;90.00
19928;DHT22;10126;50.876;4.470;2023-07-20T10:31:50;34.70;87.20
19928;DHT22;10126;50.876;4.470;2023-07-20T10:33:51;34.00;86.00
19928;DHT22;10126;50.876;4.470;2023-07-20T10:35:57;33.00;87.80
19928;DHT22;10126;50.876;4.470;2023-07-20T10:38:01;31.70;89.80
19928;DHT22;10126;50.876;4.470;2023-07-20T10:40:29;30.30;92.40
19928;DHT22;10126;50.876;4.470;2023-07-20T10:42:33;29.30;93.00
19928;DHT22;10126;50.876;4.470;2023-07-20T10:44:39;29.80;93.00
19928;DHT22;10126;50.876;4.470;2023-07-20T10:49:00;29.30;95.30
19928;DHT22;10126;50.876;4.470;2023-07-20T10:51:21;28.70;94.90
19928;DHT22;10126;50.876;4.470;2023-07-20T10:53:23;28.70;94.90
19928;DHT22;10126;50.876;4.470;2023-07-20T10:55:25;29.00;94.50
19928;DHT22;10126;50.876;4.470;2023-07-20T10:57:30;29.20;95.20
19928;DHT22;10126;50.876;4.470;2023-07-20T11:01:36;27.70;97.20
19928;DHT22;10126;50.876;4.470;2023-07-20T11:03:38;27.40;98.50
19928;DHT22;10126;50.876;4.470;2023-07-20T11:05:41;27.00;99.40
19928;DHT22;10126;50.876;4.470;2023-07-20T11:07:42;26.70;98.60
19928;DHT22;10126;50.876;4.470;2023-07-20T11:09:43;26.20;99.90
19928;DHT22;10126;50.876;4.470;2023-07-20T11:11:48;26.10;99.90
19928;DHT22;10126;50.876;4.470;2023-07-20T11:14:03;26.00;99.90
19928;DHT22;10126;50.876;4.470;2023-07-20T11:16:04;25.80;99.90
19928;DHT22;10126;50.876;4.470;2023-07-20T11:18:14;25.80;99.90
19928;DHT22;10126;50.876;4.470;2023-07-20T11:20:15;25.80;99.90
19928;DHT22;10126;50.876;4.470;2023-07-20T11:22:17;25.70;99.90
19928;DHT22;10126;50.876;4.470;2023-07-20T11:24:18;25.60;99.90
19928;DHT22;10126;50.876;4.470;2023-07-20T11:26:19;25.70;99.90
19928;DHT22;10126;50.876;4.470;2023-07-20T11:28:20;25.70;99.90
19928;DHT22;10126;50.876;4.470;2023-07-20T11:30:20;25.90;99.90
19928;DHT22;10126;50.876;4.470;2023-07-20T11:32:22;26.20;99.90
19928;DHT22;10126;50.876;4.470;2023-07-20T11:34:23;26.40;99.90
19928;DHT22;10126;50.876;4.470;2023-07-20T11:36:23;26.70;99.90
19928;DHT22;10126;50.876;4.470;2023-07-20T11:38:24;26.60;99.90
19928;DHT22;10126;50.876;4.470;2023-07-20T11:40:25;26.60;99.90
19928;DHT22;10126;50.876;4.470;2023-07-20T11:42:26;27.00;99.90
19928;DHT22;10126;50.876;4.470;2023-07-20T11:44:27;27.20;99.90
19928;DHT22;10126;50.876;4.470;2023-07-20T11:46:29;27.50;99.90
19928;DHT22;10126;50.876;4.470;2023-07-20T11:48:30;26.90;99.90
19928;DHT22;10126;50.876;4.470;2023-07-20T11:50:30;26.60;99.90
19928;DHT22;10126;50.876;4.470;2023-07-20T11:52:31;26.60;99.90
19928;DHT22;10126;50.876;4.470;2023-07-20T11:54:33;26.60;99.90
19928;DHT22;10126;50.876;4.470;2023-07-20T11:56:34;26.60;99.90
19928;DHT22;10126;50.876;4.470;2023-07-20T11:58:35;26.30;99.90
19928;DHT22;10126;50.876;4.470;2023-07-20T12:00:37;26.20;99.90
19928;DHT22;10126;50.876;4.470;2023-07-20T12:02:41;26.30;99.90
19928;DHT22;10126;50.876;4.470;2023-07-20T12:04:41;26.70;99.90
19928;DHT22;10126;50.876;4.470;2023-07-20T12:06:42;27.20;99.90
19928;DHT22;10126;50.876;4.470;2023-07-20T12:08:43;27.40;99.90
19928;DHT22;10126;50.876;4.470;2023-07-20T12:10:44;27.00;99.90
19928;DHT22;10126;50.876;4.470;2023-07-20T12:12:45;26.40;99.90
19928;DHT22;10126;50.876;4.470;2023-07-20T12:14:46;26.00;99.90
19928;DHT22;10126;50.876;4.470;2023-07-20T12:16:53;26.00;99.90
19928;DHT22;10126;50.876;4.470;2023-07-20T12:19:07;26.10;99.90
19928;DHT22;10126;50.876;4.470;2023-07-20T12:21:09;26.40;99.90
19928;DHT22;10126;50.876;4.470;2023-07-20T12:23:13;26.50;99.90
19928;DHT22;10126;50.876;4.470;2023-07-20T12:25:14;26.50;99.90
19928;DHT22;10126;50.876;4.470;2023-07-20T12:27:14;26.70;99.90
19928;DHT22;10126;50.876;4.470;2023-07-20T12:29:16;26.70;99.90
19928;DHT22;10126;50.876;4.470;2023-07-20T12:31:17;26.40;99.90
19928;DHT22;10126;50.876;4.470;2023-07-20T12:33:17;26.50;99.90
19928;DHT22;10126;50.876;4.470;2023-07-20T12:35:18;26.50;99.90
19928;DHT22;10126;50.876;4.470;2023-07-20T12:37:19;26.80;99.90
19928;DHT22;10126;50.876;4.470;2023-07-20T12:39:19;26.40;99.90
19928;DHT22;10126;50.876;4.470;2023-07-20T12:41:20;26.60;99.90
19928;DHT22;10126;50.876;4.470;2023-07-20T12:43:21;26.80;99.90
19928;DHT22;10126;50.876;4.470;2023-07-20T12:45:22;27.00;99.90
19928;DHT22;10126;50.876;4.470;2023-07-20T12:47:23;26.70;99.90
19928;DHT22;10126;50.876;4.470;2023-07-20T12:49:23;26.60;99.90
19928;DHT22;10126;50.876;4.470;2023-07-20T12:51:24;26.60;99.90
19928;DHT22;10126;50.876;4.470;2023-07-20T12:53:25;27.10;99.90
19928;DHT22;10126;50.876;4.470;2023-07-20T12:55:25;27.40;99.60
19928;DHT22;10126;50.876;4.470;2023-07-20T12:57:26;27.80;99.60
19928;DHT22;10126;50.876;4.470;2023-07-20T12:59:26;28.20;99.10
19928;DHT22;10126;50.876;4.470;2023-07-20T13:01:27;28.50;99.40
19928;DHT22;10126;50.876;4.470;2023-07-20T13:03:28;27.90;99.50
19928;DHT22;10126;50.876;4.470;2023-07-20T13:05:29;27.50;99.90
19928;DHT22;10126;50.876;4.470;2023-07-20T13:07:34;27.20;99.90
19928;DHT22;10126;50.876;4.470;2023-07-20T13:09:35;27.00;99.90